createdAt,value
2019-04-14T00:00:34.135Z,5.76
2019-04-14T00:01:34.798Z,5.68
2019-04-14T00:02:34.086Z,5.75
2019-04-14T00:03:34.734Z,5.72
2019-04-14T00:04:34.048Z,5.72
2019-04-14T00:05:35.472Z,5.75
2019-04-14T00:06:35.076Z,5.68
2019-04-14T00:07:34.085Z,5.64
2019-04-14T00:08:34.829Z,5.68
2019-04-14T00:09:33.932Z,5.67
2019-04-14T00:10:33.912Z,5.65
2019-04-14T00:11:34.402Z,5.64
2019-04-14T00:12:33.865Z,5.64
2019-04-14T00:13:34.899Z,5.65
2019-04-14T00:14:33.825Z,5.61
2019-04-14T00:15:39.523Z,5.64
2019-04-14T00:16:33.779Z,5.68
2019-04-14T00:17:34.820Z,5.60
2019-04-14T00:18:33.757Z,5.61
2019-04-14T00:19:34.669Z,5.63
2019-04-14T00:20:33.740Z,5.64
2019-04-14T00:21:34.620Z,5.65
2019-04-14T00:22:33.688Z,5.61
2019-04-14T00:23:34.745Z,5.71
2019-04-14T00:24:33.623Z,5.63
2019-04-14T00:25:34.776Z,5.65
2019-04-14T00:26:33.660Z,5.71
2019-04-14T00:27:34.550Z,5.63
2019-04-14T00:28:33.633Z,5.67
2019-04-14T00:29:33.499Z,5.63
2019-04-14T00:30:33.795Z,5.58
2019-04-14T00:31:33.455Z,5.57
2019-04-14T00:32:33.484Z,5.57
2019-04-14T00:33:34.518Z,5.60
2019-04-14T00:34:33.397Z,5.60
2019-04-14T00:35:34.199Z,5.58
2019-04-14T00:36:33.351Z,5.63
2019-04-14T00:37:33.697Z,5.54
2019-04-14T00:38:34.487Z,5.56
2019-04-14T00:39:33.632Z,5.49
2019-04-14T00:40:34.591Z,5.51
2019-04-14T00:41:42.452Z,5.54
2019-04-14T00:42:34.168Z,5.48
2019-04-14T00:43:33.187Z,5.56
2019-04-14T00:44:34.028Z,5.53
2019-04-14T00:45:41.537Z,5.56
2019-04-14T00:46:34.158Z,5.57
2019-04-14T00:47:33.211Z,5.51
2019-04-14T00:48:34.104Z,5.49
2019-04-14T00:49:33.303Z,5.49
2019-04-14T00:50:34.097Z,5.56
2019-04-14T00:51:33.137Z,5.53
2019-04-14T00:52:34.074Z,5.43
2019-04-14T00:53:33.886Z,5.48
2019-04-14T00:54:32.949Z,5.49
2019-04-14T00:55:33.570Z,5.49
2019-04-14T00:56:32.901Z,5.48
2019-04-14T00:57:33.341Z,5.43
2019-04-14T00:58:32.855Z,5.45
2019-04-14T00:59:33.382Z,5.46
2019-04-14T01:00:33.928Z,5.35
2019-04-14T01:01:33.031Z,5.39
2019-04-14T01:02:33.913Z,5.42
2019-04-14T01:03:33.048Z,5.38
2019-04-14T01:04:33.766Z,5.33
2019-04-14T01:05:34.448Z,5.33
2019-04-14T01:06:33.580Z,5.35
2019-04-14T01:07:32.786Z,5.30
2019-04-14T01:08:33.520Z,5.35
2019-04-14T01:09:32.713Z,5.33
2019-04-14T01:10:32.594Z,5.38
2019-04-14T01:11:33.541Z,5.28
2019-04-14T01:12:32.547Z,5.28
2019-04-14T01:13:33.270Z,5.33
2019-04-14T01:14:32.505Z,5.38
2019-04-14T01:15:44.808Z,5.40
2019-04-14T01:16:32.462Z,5.39
2019-04-14T01:17:33.071Z,5.39
2019-04-14T01:18:32.416Z,5.39
2019-04-14T01:19:33.105Z,5.30
2019-04-14T01:20:32.375Z,5.31
2019-04-14T01:21:32.791Z,5.27
2019-04-14T01:22:33.470Z,5.31
2019-04-14T01:23:32.664Z,5.35
2019-04-14T01:24:33.555Z,5.33
2019-04-14T01:25:32.479Z,5.28
2019-04-14T01:26:33.195Z,5.22
2019-04-14T01:27:32.212Z,5.31
2019-04-14T01:28:33.019Z,5.24
2019-04-14T01:29:32.176Z,5.33
2019-04-14T01:30:32.699Z,5.24
2019-04-14T01:31:32.130Z,5.21
2019-04-14T01:32:32.604Z,5.21
2019-04-14T01:33:32.090Z,5.21
2019-04-14T01:34:32.452Z,5.24
2019-04-14T01:35:32.041Z,5.20
2019-04-14T01:36:32.080Z,5.20
2019-04-14T01:37:33.250Z,5.20
2019-04-14T01:38:32.053Z,5.21
2019-04-14T01:39:32.873Z,5.22
2019-04-14T01:40:31.928Z,5.21
2019-04-14T01:41:32.506Z,5.20
2019-04-14T01:42:31.888Z,5.13
2019-04-14T01:43:32.183Z,5.18
2019-04-14T01:44:32.974Z,5.20
2019-04-14T01:45:31.820Z,5.17
2019-04-14T01:46:33.976Z,5.06
2019-04-14T01:47:31.770Z,5.06
2019-04-14T01:48:32.455Z,5.09
2019-04-14T01:49:31.746Z,5.06
2019-04-14T01:50:32.279Z,5.03
2019-04-14T01:51:31.686Z,5.09
2019-04-14T01:52:31.994Z,5.04
2019-04-14T01:53:31.641Z,5.13
2019-04-14T01:54:32.344Z,5.13
2019-04-14T01:55:31.597Z,5.06
2019-04-14T01:56:31.969Z,5.09
2019-04-14T01:57:32.804Z,5.10
2019-04-14T01:58:31.796Z,5.12
2019-04-14T01:59:32.582Z,5.10
2019-04-14T02:00:31.657Z,5.12
2019-04-14T02:01:32.471Z,5.09
2019-04-14T02:02:31.553Z,5.15
2019-04-14T02:03:32.288Z,5.13
2019-04-14T02:04:31.398Z,5.04
2019-04-14T02:05:32.090Z,5.06
2019-04-14T02:06:31.369Z,5.03
2019-04-14T02:07:31.907Z,5.09
2019-04-14T02:08:31.305Z,5.12
2019-04-14T02:09:31.629Z,5.10
2019-04-14T02:10:32.573Z,5.09
2019-04-14T02:11:31.405Z,5.07
2019-04-14T02:12:32.348Z,5.09
2019-04-14T02:13:31.200Z,4.99
2019-04-14T02:14:32.251Z,5.00
2019-04-14T02:15:31.149Z,5.03
2019-04-14T02:16:39.744Z,5.03
2019-04-14T02:17:31.129Z,5.04
2019-04-14T02:18:31.850Z,4.97
2019-04-14T02:19:31.063Z,4.94
2019-04-14T02:20:31.900Z,4.92
2019-04-14T02:21:32.304Z,4.89
2019-04-14T02:22:31.306Z,4.86
2019-04-14T02:23:32.201Z,4.88
2019-04-14T02:24:31.061Z,4.80
2019-04-14T02:25:31.780Z,4.84
2019-04-14T02:26:31.030Z,4.85
2019-04-14T02:27:31.727Z,4.84
2019-04-14T02:28:31.042Z,4.73
2019-04-14T02:29:31.877Z,4.78
2019-04-14T02:30:38.864Z,4.72
2019-04-14T02:31:53.087Z,4.75
2019-04-14T02:32:57.492Z,4.66
2019-04-14T02:33:58.769Z,4.73
2019-04-14T02:35:05.581Z,4.66
2019-04-14T02:37:08.076Z,4.70
2019-04-14T02:38:09.450Z,4.66
2019-04-14T02:38:54.894Z,4.67
2019-04-14T02:40:00.430Z,4.69
2019-04-14T02:42:58.131Z,4.66
2019-04-14T02:44:15.837Z,4.65
2019-04-14T02:45:57.602Z,4.67
2019-04-14T02:46:53.107Z,4.69
2019-04-14T02:48:05.706Z,4.65
2019-04-14T02:48:58.513Z,4.66
2019-04-14T02:49:56.121Z,4.60
2019-04-14T02:50:59.918Z,4.59
2019-04-14T02:52:00.364Z,4.60
2019-04-14T02:53:01.887Z,4.60
2019-04-14T02:53:59.251Z,4.60
2019-04-14T02:55:59.496Z,4.59
2019-04-14T02:57:52.127Z,4.59
2019-04-14T02:59:58.474Z,4.59
2019-04-14T03:01:01.789Z,4.54
2019-04-14T03:02:19.656Z,4.52
2019-04-14T03:02:52.150Z,4.51
2019-04-14T03:03:56.367Z,4.44
2019-04-14T03:04:56.782Z,4.50
2019-04-14T03:06:00.180Z,4.44
2019-04-14T03:07:02.587Z,4.42
2019-04-14T03:07:59.925Z,4.40
2019-04-14T03:09:04.611Z,4.37
2019-04-14T03:10:53.705Z,4.42
2019-04-14T03:11:51.832Z,4.44
2019-04-14T03:12:57.941Z,4.36
2019-04-14T03:14:03.222Z,4.41
2019-04-14T03:14:55.630Z,4.44
2019-04-14T03:15:58.926Z,4.44
2019-04-14T03:17:10.814Z,4.50
2019-04-14T03:18:18.701Z,4.32
2019-04-14T03:18:50.357Z,4.33
2019-04-14T03:20:55.061Z,4.40
2019-04-14T03:22:03.201Z,4.44
2019-04-14T03:22:55.896Z,4.45
2019-04-14T03:24:00.596Z,4.50
2019-04-14T03:24:44.429Z,4.45
2019-04-14T03:25:55.271Z,4.37
2019-04-14T03:26:56.140Z,4.34
2019-04-14T03:27:56.821Z,4.27
2019-04-14T03:29:08.796Z,4.23
2019-04-14T03:29:58.335Z,4.32
2019-04-14T03:31:09.895Z,4.27
2019-04-14T03:34:30.326Z,4.30
2019-04-14T03:35:09.817Z,4.32
2019-04-14T03:36:26.848Z,4.30
2019-04-14T03:39:00.593Z,4.22
2019-04-14T03:39:52.167Z,4.30
2019-04-14T03:41:06.118Z,4.33
2019-04-14T03:41:52.717Z,4.24
2019-04-14T03:43:01.600Z,4.29
2019-04-14T03:43:50.796Z,4.30
2019-04-14T03:47:03.280Z,4.30
2019-04-14T03:48:21.850Z,4.33
2019-04-14T03:48:57.966Z,4.33
2019-04-14T03:49:52.887Z,4.30
2019-04-14T03:50:56.125Z,4.32
2019-04-14T03:51:59.619Z,4.33
2019-04-14T03:52:56.167Z,4.29
2019-04-14T03:53:54.498Z,4.29
2019-04-14T03:54:44.045Z,4.27
2019-04-14T03:55:37.049Z,4.29
2019-04-14T03:56:29.210Z,4.27
2019-04-14T03:57:30.069Z,4.33
2019-04-14T03:58:29.271Z,4.27
2019-04-14T03:59:28.827Z,4.23
2019-04-14T04:00:29.197Z,4.30
2019-04-14T04:01:28.797Z,4.20
2019-04-14T04:02:29.424Z,4.16
2019-04-14T04:03:28.736Z,4.18
2019-04-14T04:04:29.422Z,4.22
2019-04-14T04:05:28.687Z,4.24
2019-04-14T04:06:29.226Z,4.33
2019-04-14T04:07:28.644Z,4.18
2019-04-14T04:08:29.113Z,4.22
2019-04-14T04:09:28.597Z,4.20
2019-04-14T04:10:29.230Z,4.14
2019-04-14T04:11:28.555Z,4.18
2019-04-14T04:12:29.269Z,4.27
2019-04-14T04:13:28.537Z,4.29
2019-04-14T04:14:29.186Z,4.30
2019-04-14T04:15:28.483Z,4.24
2019-04-14T04:16:29.101Z,4.15
2019-04-14T04:17:29.696Z,4.34
2019-04-14T04:18:28.757Z,4.32
2019-04-14T04:19:29.422Z,4.32
2019-04-14T04:20:28.560Z,4.23
2019-04-14T04:21:29.126Z,4.27
2019-04-14T04:22:28.307Z,4.33
2019-04-14T04:23:29.201Z,4.23
2019-04-14T04:24:30.602Z,4.24
2019-04-14T04:25:29.002Z,4.32
2019-04-14T04:26:28.214Z,4.33
2019-04-14T04:27:28.771Z,4.34
2019-04-14T04:28:28.170Z,4.32
2019-04-14T04:29:28.811Z,4.29
2019-04-14T04:30:28.132Z,4.24
2019-04-14T04:31:28.583Z,4.16
2019-04-14T04:32:28.080Z,4.22
2019-04-14T04:33:28.451Z,4.18
2019-04-14T04:34:28.040Z,4.18
2019-04-14T04:35:28.231Z,4.15
2019-04-14T04:36:29.112Z,4.18
2019-04-14T04:37:28.001Z,4.27
2019-04-14T04:38:28.785Z,4.32
2019-04-14T04:39:28.058Z,4.34
2019-04-14T04:40:28.985Z,4.32
2019-04-14T04:41:27.882Z,4.24
2019-04-14T04:42:28.682Z,4.24
2019-04-14T04:43:27.831Z,4.32
2019-04-14T04:44:29.053Z,4.29
2019-04-14T04:45:28.025Z,4.33
2019-04-14T04:46:28.778Z,4.33
2019-04-14T04:47:27.739Z,4.33
2019-04-14T04:48:28.516Z,4.30
2019-04-14T04:49:29.704Z,4.34
2019-04-14T04:50:28.263Z,4.33
2019-04-14T04:51:28.914Z,4.34
2019-04-14T04:52:28.077Z,4.32
2019-04-14T04:53:28.707Z,4.33
2019-04-14T04:54:27.906Z,4.24
2019-04-14T04:55:28.623Z,4.29
2019-04-14T04:56:27.627Z,4.36
2019-04-14T04:57:28.527Z,4.34
2019-04-14T04:58:28.391Z,4.36
2019-04-14T04:59:27.789Z,4.29
2019-04-14T05:00:27.675Z,4.40
2019-04-14T05:01:27.466Z,4.30
2019-04-14T05:02:27.406Z,4.26
2019-04-14T05:03:27.642Z,4.41
2019-04-14T05:04:28.570Z,4.44
2019-04-14T05:05:27.505Z,4.44
2019-04-14T05:06:28.657Z,4.37
2019-04-14T05:07:27.360Z,4.37
2019-04-14T05:08:28.323Z,4.37
2019-04-14T05:09:27.548Z,4.45
2019-04-14T05:10:27.225Z,4.42
2019-04-14T05:11:27.390Z,4.44
2019-04-14T05:12:28.296Z,4.42
2019-04-14T05:13:27.163Z,4.41
2019-04-14T05:14:28.302Z,4.47
2019-04-14T05:15:27.131Z,4.47
2019-04-14T05:16:28.141Z,4.51
2019-04-14T05:17:27.719Z,4.44
2019-04-14T05:18:27.047Z,4.48
2019-04-14T05:19:31.829Z,4.50
2019-04-14T05:20:27.145Z,4.45
2019-04-14T05:21:27.756Z,4.50
2019-04-14T05:22:26.958Z,4.51
2019-04-14T05:23:27.813Z,4.55
2019-04-14T05:24:26.936Z,4.52
2019-04-14T05:25:27.569Z,4.54
2019-04-14T05:26:26.863Z,4.50
2019-04-14T05:27:27.638Z,4.51
2019-04-14T05:28:26.847Z,4.48
2019-04-14T05:29:27.548Z,4.52
2019-04-14T05:30:26.773Z,4.58
2019-04-14T05:31:28.748Z,4.45
2019-04-14T05:32:26.729Z,4.51
2019-04-14T05:33:27.142Z,4.45
2019-04-14T05:34:26.693Z,4.52
2019-04-14T05:35:27.022Z,4.51
2019-04-14T05:36:26.644Z,4.42
2019-04-14T05:37:26.901Z,4.50
2019-04-14T05:38:29.434Z,4.47
2019-04-14T05:39:26.587Z,4.52
2019-04-14T05:40:27.759Z,4.47
2019-04-14T05:41:26.577Z,4.52
2019-04-14T05:42:27.497Z,4.58
2019-04-14T05:43:36.732Z,4.59
2019-04-14T05:44:27.503Z,4.60
2019-04-14T05:45:26.437Z,4.62
2019-04-14T05:46:27.349Z,4.52
2019-04-14T05:47:26.391Z,4.66
2019-04-14T05:48:27.227Z,4.63
2019-04-14T05:49:34.858Z,4.66
2019-04-14T05:50:27.215Z,4.50
2019-04-14T05:51:26.484Z,4.50
2019-04-14T05:52:27.309Z,4.52
2019-04-14T05:53:26.340Z,4.55
2019-04-14T05:54:27.401Z,4.47
2019-04-14T05:55:26.353Z,4.50
2019-04-14T05:56:27.394Z,4.45
2019-04-14T05:57:26.361Z,4.47
2019-04-14T05:58:27.418Z,4.44
2019-04-14T05:59:26.477Z,4.47
2019-04-14T06:00:26.103Z,4.52
2019-04-14T06:01:27.056Z,4.44
2019-04-14T06:02:27.876Z,4.47
2019-04-14T06:03:26.034Z,4.47
2019-04-14T06:04:26.465Z,4.50
2019-04-14T06:05:25.988Z,4.50
2019-04-14T06:06:25.973Z,4.50
2019-04-14T06:07:25.952Z,4.47
2019-04-14T06:08:25.990Z,4.52
2019-04-14T06:09:25.909Z,4.48
2019-04-14T06:10:25.881Z,4.45
2019-04-14T06:11:25.856Z,4.48
2019-04-14T06:12:25.842Z,4.45
2019-04-14T06:13:25.814Z,4.41
2019-04-14T06:14:25.788Z,4.45
2019-04-14T06:15:25.763Z,4.41
2019-04-14T06:16:25.744Z,4.48
2019-04-14T06:17:25.721Z,4.51
2019-04-14T06:18:25.703Z,4.45
2019-04-14T06:19:36.471Z,4.47
2019-04-14T06:20:25.656Z,4.45
2019-04-14T06:21:25.635Z,4.45
2019-04-14T06:22:25.609Z,4.51
2019-04-14T06:23:25.586Z,4.54
2019-04-14T06:24:25.566Z,4.48
2019-04-14T06:25:25.571Z,4.62
2019-04-14T06:26:25.520Z,4.63
2019-04-14T06:27:25.499Z,4.55
2019-04-14T06:28:25.491Z,4.63
2019-04-14T06:29:25.458Z,4.60
2019-04-14T06:30:25.432Z,4.60
2019-04-14T06:31:25.410Z,4.65
2019-04-14T06:32:25.386Z,4.62
2019-04-14T06:33:25.364Z,4.63
2019-04-14T06:34:25.360Z,4.58
2019-04-14T06:35:25.320Z,4.59
2019-04-14T06:36:25.297Z,4.63
2019-04-14T06:37:25.279Z,4.60
2019-04-14T06:38:25.252Z,4.51
2019-04-14T06:39:25.234Z,4.54
2019-04-14T06:40:25.215Z,4.50
2019-04-14T06:41:25.187Z,4.51
2019-04-14T06:42:25.166Z,4.50
2019-04-14T06:43:25.143Z,4.63
2019-04-14T06:44:25.120Z,4.54
2019-04-14T06:45:25.094Z,4.62
2019-04-14T06:46:25.076Z,4.63
2019-04-14T06:47:25.050Z,4.60
2019-04-14T06:48:25.027Z,4.67
2019-04-14T06:49:25.006Z,4.66
2019-04-14T06:50:24.993Z,4.73
2019-04-14T06:51:24.972Z,4.66
2019-04-14T06:52:24.943Z,4.77
2019-04-14T06:53:24.926Z,4.75
2019-04-14T06:54:24.897Z,4.70
2019-04-14T06:55:24.877Z,4.69
2019-04-14T06:56:24.856Z,4.73
2019-04-14T06:57:24.830Z,4.70
2019-04-14T06:58:24.806Z,4.70
2019-04-14T06:59:24.784Z,4.80
2019-04-14T07:00:24.767Z,4.84
2019-04-14T07:01:24.740Z,4.84
2019-04-14T07:02:24.726Z,4.85
2019-04-14T07:03:24.698Z,4.86
2019-04-14T07:04:24.676Z,4.80
2019-04-14T07:05:24.654Z,4.85
2019-04-14T07:06:24.630Z,4.89
2019-04-14T07:07:24.608Z,4.82
2019-04-14T07:08:24.588Z,4.80
2019-04-14T07:09:24.571Z,4.85
2019-04-14T07:10:24.547Z,4.89
2019-04-14T07:11:24.521Z,4.86
2019-04-14T07:12:24.500Z,4.82
2019-04-14T07:13:24.492Z,4.88
2019-04-14T07:14:24.454Z,4.92
2019-04-14T07:15:24.428Z,4.96
2019-04-14T07:16:24.409Z,5.00
2019-04-14T07:17:24.388Z,5.02
2019-04-14T07:18:24.367Z,5.02
2019-04-14T07:19:24.348Z,5.00
2019-04-14T07:20:24.318Z,5.03
2019-04-14T07:21:24.299Z,5.03
2019-04-14T07:22:24.281Z,5.00
2019-04-14T07:23:24.256Z,5.09
2019-04-14T07:24:24.236Z,5.06
2019-04-14T07:25:24.217Z,5.04
2019-04-14T07:26:24.185Z,5.04
2019-04-14T07:27:24.161Z,5.06
2019-04-14T07:28:24.141Z,5.09
2019-04-14T07:29:24.125Z,5.09
2019-04-14T07:30:24.100Z,5.10
2019-04-14T07:31:24.080Z,5.21
2019-04-14T07:32:24.052Z,5.22
2019-04-14T07:33:24.033Z,5.20
2019-04-14T07:34:24.007Z,5.13
2019-04-14T07:35:23.984Z,5.25
2019-04-14T07:36:23.964Z,5.30
2019-04-14T07:37:23.946Z,5.33
2019-04-14T07:38:23.930Z,5.28
2019-04-14T07:39:23.899Z,5.40
2019-04-14T07:40:23.881Z,5.27
2019-04-14T07:41:23.859Z,5.27
2019-04-14T07:42:23.832Z,5.40
2019-04-14T07:43:23.811Z,5.28
2019-04-14T07:44:23.789Z,5.35
2019-04-14T07:45:23.766Z,5.38
2019-04-14T07:46:23.747Z,5.38
2019-04-14T07:47:23.727Z,5.43
2019-04-14T07:48:23.700Z,5.48
2019-04-14T07:49:23.681Z,5.48
2019-04-14T07:50:23.661Z,5.51
2019-04-14T07:51:23.647Z,5.63
2019-04-14T07:52:23.615Z,5.57
2019-04-14T07:53:23.593Z,5.65
2019-04-14T07:54:23.571Z,5.64
2019-04-14T07:55:23.551Z,5.64
2019-04-14T07:56:23.537Z,5.65
2019-04-14T07:57:23.502Z,5.67
2019-04-14T07:58:23.483Z,5.61
2019-04-14T07:59:23.462Z,5.61
2019-04-14T08:00:23.439Z,5.72
2019-04-14T08:01:25.833Z,5.72
2019-04-14T08:02:23.393Z,5.76
2019-04-14T08:03:23.371Z,5.79
2019-04-14T08:04:23.348Z,5.78
2019-04-14T08:05:23.328Z,5.72
2019-04-14T08:06:23.313Z,5.74
2019-04-14T08:07:23.283Z,5.81
2019-04-14T08:08:23.264Z,5.72
2019-04-14T08:09:23.246Z,5.72
2019-04-14T08:10:23.221Z,5.67
2019-04-14T08:11:23.195Z,5.68
2019-04-14T08:12:23.176Z,5.71
2019-04-14T08:13:23.159Z,5.72
2019-04-14T08:14:23.139Z,5.79
2019-04-14T08:15:23.112Z,5.82
2019-04-14T08:16:23.091Z,5.76
2019-04-14T08:17:23.073Z,5.81
2019-04-14T08:18:23.050Z,5.81
2019-04-14T08:19:23.023Z,5.89
2019-04-14T08:20:27.711Z,5.93
2019-04-14T08:21:22.983Z,5.91
2019-04-14T08:22:22.967Z,5.93
2019-04-14T08:23:22.936Z,5.93
2019-04-14T08:24:22.918Z,5.99
2019-04-14T08:25:22.893Z,6.04
2019-04-14T08:26:22.874Z,6.01
2019-04-14T08:27:22.850Z,6.08
2019-04-14T08:28:22.827Z,6.08
2019-04-14T08:29:22.807Z,6.14
2019-04-14T08:30:22.786Z,6.12
2019-04-14T08:31:22.776Z,6.09
2019-04-14T08:32:22.741Z,6.19
2019-04-14T08:33:22.727Z,6.18
2019-04-14T08:34:22.696Z,6.28
2019-04-14T08:35:22.739Z,6.21
2019-04-14T08:36:22.655Z,6.18
2019-04-14T08:37:22.639Z,6.27
2019-04-14T08:38:22.612Z,6.21
2019-04-14T08:39:22.589Z,6.30
2019-04-14T08:40:22.569Z,6.31
2019-04-14T08:41:22.545Z,6.36
2019-04-14T08:42:22.525Z,6.34
2019-04-14T08:43:22.505Z,6.30
2019-04-14T08:44:22.489Z,6.34
2019-04-14T08:45:22.461Z,6.40
2019-04-14T08:46:22.500Z,6.41
2019-04-14T08:47:22.422Z,6.38
2019-04-14T08:48:22.395Z,6.44
2019-04-14T08:49:22.375Z,6.41
2019-04-14T08:50:22.351Z,6.38
2019-04-14T08:51:22.335Z,6.40
2019-04-14T08:52:24.122Z,6.36
2019-04-14T08:53:22.283Z,6.52
2019-04-14T08:54:22.270Z,6.54
2019-04-14T08:55:22.244Z,6.55
2019-04-14T08:56:22.225Z,6.56
2019-04-14T08:57:22.204Z,6.49
2019-04-14T08:58:22.183Z,6.58
2019-04-14T08:59:22.162Z,6.54
2019-04-14T09:00:22.139Z,6.56
2019-04-14T09:01:22.119Z,6.46
2019-04-14T09:02:22.097Z,6.59
2019-04-14T09:03:22.072Z,6.62
2019-04-14T09:04:22.055Z,6.51
2019-04-14T09:05:22.032Z,6.59
2019-04-14T09:06:22.014Z,6.59
2019-04-14T09:07:21.984Z,6.69
2019-04-14T09:08:21.966Z,6.67
2019-04-14T09:09:21.944Z,6.79
2019-04-14T09:10:21.954Z,6.73
2019-04-14T09:11:21.905Z,6.77
2019-04-14T09:12:21.886Z,6.71
2019-04-14T09:13:21.858Z,6.85
2019-04-14T09:14:21.836Z,6.85
2019-04-14T09:15:21.812Z,6.84
2019-04-14T09:16:21.791Z,6.74
2019-04-14T09:17:21.775Z,6.76
2019-04-14T09:18:21.750Z,6.80
2019-04-14T09:19:21.737Z,6.77
2019-04-14T09:20:21.709Z,6.84
2019-04-14T09:21:21.696Z,6.85
2019-04-14T09:22:21.670Z,6.87
2019-04-14T09:23:21.646Z,6.89
2019-04-14T09:24:21.626Z,6.87
2019-04-14T09:25:21.600Z,6.94
2019-04-14T09:26:21.580Z,6.88
2019-04-14T09:27:21.559Z,6.81
2019-04-14T09:28:21.538Z,6.92
2019-04-14T09:29:21.514Z,6.89
2019-04-14T09:30:21.498Z,6.98
2019-04-14T09:31:21.476Z,6.92
2019-04-14T09:32:21.457Z,6.89
2019-04-14T09:33:21.431Z,6.95
2019-04-14T09:34:21.415Z,6.91
2019-04-14T09:35:21.394Z,6.88
2019-04-14T09:36:21.363Z,6.92
2019-04-14T09:37:21.346Z,6.98
2019-04-14T09:38:21.324Z,6.98
2019-04-14T09:39:21.302Z,6.98
2019-04-14T09:40:21.282Z,6.97
2019-04-14T09:41:21.264Z,6.98
2019-04-14T09:42:21.246Z,6.98
2019-04-14T09:43:21.221Z,6.97
2019-04-14T09:44:21.197Z,6.95
2019-04-14T09:45:21.180Z,6.91
2019-04-14T09:46:21.153Z,6.97
2019-04-14T09:47:21.137Z,6.97
2019-04-14T09:48:21.115Z,6.97
2019-04-14T09:49:21.089Z,6.99
2019-04-14T09:50:21.068Z,7.02
2019-04-14T09:51:21.058Z,7.07
2019-04-14T09:52:21.027Z,6.99
2019-04-14T09:53:21.006Z,6.95
2019-04-14T09:54:20.986Z,7.06
2019-04-14T09:55:23.404Z,6.98
2019-04-14T09:56:20.948Z,7.03
2019-04-14T09:57:20.924Z,7.12
2019-04-14T09:58:20.903Z,7.10
2019-04-14T09:59:20.886Z,7.06
2019-04-14T10:00:20.862Z,7.12
2019-04-14T10:01:20.837Z,7.10
2019-04-14T10:02:20.813Z,7.15
2019-04-14T10:03:20.808Z,7.16
2019-04-14T10:04:20.777Z,7.23
2019-04-14T10:05:20.752Z,7.13
2019-04-14T10:06:20.731Z,7.17
2019-04-14T10:07:20.707Z,7.10
2019-04-14T10:08:20.690Z,7.07
2019-04-14T10:09:20.676Z,7.13
2019-04-14T10:10:20.647Z,7.12
2019-04-14T10:11:20.619Z,7.12
2019-04-14T10:12:20.604Z,7.07
2019-04-14T10:13:20.582Z,7.13
2019-04-14T10:14:20.561Z,7.09
2019-04-14T10:15:20.539Z,7.16
2019-04-14T10:16:20.517Z,7.12
2019-04-14T10:17:20.497Z,7.10
2019-04-14T10:18:20.485Z,7.10
2019-04-14T10:19:20.451Z,7.10
2019-04-14T10:20:20.430Z,7.17
2019-04-14T10:21:20.412Z,7.23
2019-04-14T10:22:20.389Z,7.17
2019-04-14T10:23:20.367Z,7.15
2019-04-14T10:24:20.350Z,7.20
2019-04-14T10:25:20.320Z,7.27
2019-04-14T10:26:20.308Z,7.21
2019-04-14T10:27:20.283Z,7.27
2019-04-14T10:28:20.263Z,7.25
2019-04-14T10:29:20.255Z,7.23
2019-04-14T10:30:20.219Z,7.27
2019-04-14T10:31:20.197Z,7.31
2019-04-14T10:32:20.184Z,7.27
2019-04-14T10:33:20.157Z,7.27
2019-04-14T10:34:20.136Z,7.21
2019-04-14T10:35:20.114Z,7.25
2019-04-14T10:36:20.094Z,7.28
2019-04-14T10:37:20.073Z,7.25
2019-04-14T10:38:20.055Z,7.25
2019-04-14T10:39:20.033Z,7.27
2019-04-14T10:40:20.010Z,7.28
2019-04-14T10:41:19.986Z,7.30
2019-04-14T10:42:19.969Z,7.31
2019-04-14T10:43:19.949Z,7.31
2019-04-14T10:44:19.923Z,7.28
2019-04-14T10:45:19.912Z,7.27
2019-04-14T10:46:19.885Z,7.24
2019-04-14T10:47:19.862Z,7.35
2019-04-14T10:48:19.839Z,7.39
2019-04-14T10:49:19.823Z,7.43
2019-04-14T10:50:30.242Z,7.37
2019-04-14T10:51:29.500Z,7.48
2019-04-14T10:52:19.766Z,7.49
2019-04-14T10:53:19.747Z,7.50
2019-04-14T10:54:19.713Z,7.55
2019-04-14T10:55:19.694Z,7.53
2019-04-14T10:56:19.669Z,7.48
2019-04-14T10:57:19.649Z,7.61
2019-04-14T10:58:19.630Z,7.69
2019-04-14T10:59:19.607Z,7.71
2019-04-14T11:00:19.585Z,7.74
2019-04-14T11:01:19.566Z,7.74
2019-04-14T11:02:19.550Z,7.79
2019-04-14T11:03:19.531Z,7.80
2019-04-14T11:04:19.509Z,7.82
2019-04-14T11:05:19.480Z,7.86
2019-04-14T11:06:19.462Z,7.92
2019-04-14T11:07:19.441Z,7.92
2019-04-14T11:08:19.418Z,7.87
2019-04-14T11:09:19.396Z,8.00
2019-04-14T11:10:19.378Z,8.01
2019-04-14T11:11:19.351Z,7.98
2019-04-14T11:12:19.338Z,8.07
2019-04-14T11:13:19.314Z,8.16
2019-04-14T11:14:19.293Z,8.11
2019-04-14T11:15:19.270Z,8.20
2019-04-14T11:16:19.254Z,8.11
2019-04-14T11:17:19.229Z,8.15
2019-04-14T11:18:19.208Z,8.11
2019-04-14T11:19:19.184Z,8.19
2019-04-14T11:20:19.162Z,8.23
2019-04-14T11:21:19.146Z,8.23
2019-04-14T11:22:19.122Z,8.29
2019-04-14T11:23:19.104Z,8.23
2019-04-14T11:24:19.085Z,8.25
2019-04-14T11:25:19.074Z,8.22
2019-04-14T11:26:19.042Z,8.38
2019-04-14T11:27:19.021Z,8.23
2019-04-14T11:28:19.000Z,8.29
2019-04-14T11:29:18.982Z,8.26
2019-04-14T11:30:18.960Z,8.26
2019-04-14T11:31:18.936Z,8.28
2019-04-14T11:32:18.920Z,8.30
2019-04-14T11:33:18.898Z,8.25
2019-04-14T11:34:18.881Z,8.43
2019-04-14T11:35:18.867Z,8.41
2019-04-14T11:36:18.840Z,8.50
2019-04-14T11:37:18.825Z,8.53
2019-04-14T11:38:18.810Z,8.45
2019-04-14T11:39:18.773Z,8.55
2019-04-14T11:40:18.750Z,8.47
2019-04-14T11:41:18.766Z,8.52
2019-04-14T11:42:18.725Z,8.53
2019-04-14T11:43:18.695Z,8.50
2019-04-14T11:44:18.676Z,8.70
2019-04-14T11:45:18.647Z,8.59
2019-04-14T11:46:18.626Z,8.73
2019-04-14T11:47:18.622Z,8.70
2019-04-14T11:48:18.589Z,8.73
2019-04-14T11:49:18.564Z,8.86
2019-04-14T11:50:18.547Z,8.80
2019-04-14T11:51:18.582Z,8.79
2019-04-14T11:52:18.505Z,8.89
2019-04-14T11:53:18.512Z,8.99
2019-04-14T11:54:18.472Z,9.05
2019-04-14T11:55:18.446Z,9.10
2019-04-14T11:56:18.425Z,9.14
2019-04-14T11:57:18.417Z,9.20
2019-04-14T11:58:18.384Z,9.28
2019-04-14T11:59:18.370Z,9.32
2019-04-14T12:00:18.354Z,9.36
2019-04-14T12:01:18.326Z,9.58
2019-04-14T12:02:18.310Z,9.69
2019-04-14T12:03:18.285Z,9.65
2019-04-14T12:04:18.269Z,9.78
2019-04-14T12:05:18.267Z,9.84
2019-04-14T12:06:18.226Z,9.89
2019-04-14T12:07:18.207Z,10.04
2019-04-14T12:08:18.191Z,10.01
2019-04-14T12:09:18.171Z,9.97
2019-04-14T12:10:18.148Z,10.04
2019-04-14T12:11:18.130Z,9.93
2019-04-14T12:12:18.107Z,9.87
2019-04-14T12:13:18.088Z,9.91
2019-04-14T12:14:18.075Z,9.89
2019-04-14T12:15:18.052Z,9.79
2019-04-14T12:16:18.032Z,9.89
2019-04-14T12:17:18.010Z,9.96
2019-04-14T12:18:17.997Z,9.93
2019-04-14T12:19:17.970Z,10.01
2019-04-14T12:20:17.954Z,10.09
2019-04-14T12:21:17.934Z,10.11
2019-04-14T12:22:17.916Z,10.17
2019-04-14T12:23:17.924Z,10.22
2019-04-14T12:24:17.879Z,10.27
2019-04-14T12:25:17.860Z,10.23
2019-04-14T12:26:17.835Z,10.38
2019-04-14T12:27:17.814Z,10.42
2019-04-14T12:28:17.801Z,10.47
2019-04-14T12:29:18.819Z,10.59
2019-04-14T12:30:18.089Z,10.56
2019-04-14T12:31:17.751Z,10.61
2019-04-14T12:32:17.728Z,10.61
2019-04-14T12:33:17.712Z,10.59
2019-04-14T12:34:18.387Z,10.63
2019-04-14T12:35:17.671Z,10.66
2019-04-14T12:36:17.651Z,10.74
2019-04-14T12:37:17.635Z,10.79
2019-04-14T12:38:17.613Z,10.84
2019-04-14T12:39:17.599Z,10.88
2019-04-14T12:40:17.581Z,10.78
2019-04-14T12:41:17.740Z,10.84
2019-04-14T12:42:17.540Z,10.78
2019-04-14T12:43:17.523Z,10.81
2019-04-14T12:44:17.506Z,10.85
2019-04-14T12:45:17.483Z,10.88
2019-04-14T12:46:17.482Z,10.81
2019-04-14T12:47:17.449Z,10.81
2019-04-14T12:48:17.427Z,10.89
2019-04-14T12:49:17.412Z,11.03
2019-04-14T12:50:17.402Z,11.22
2019-04-14T12:51:20.361Z,11.35
2019-04-14T12:52:21.406Z,11.44
2019-04-14T12:53:17.338Z,11.54
2019-04-14T12:54:17.326Z,11.46
2019-04-14T12:55:17.311Z,11.52
2019-04-14T12:56:17.285Z,11.44
2019-04-14T12:57:17.276Z,11.51
2019-04-14T12:58:17.256Z,11.51
2019-04-14T12:59:17.230Z,11.44
2019-04-14T13:00:17.210Z,11.37
2019-04-14T13:01:17.203Z,11.36
2019-04-14T13:02:17.177Z,11.37
2019-04-14T13:03:17.162Z,11.29
2019-04-14T13:04:17.144Z,11.35
2019-04-14T13:05:17.134Z,11.28
2019-04-14T13:06:17.118Z,11.25
2019-04-14T13:07:17.099Z,11.24
2019-04-14T13:08:17.073Z,11.22
2019-04-14T13:09:17.064Z,11.21
2019-04-14T13:10:17.110Z,11.21
2019-04-14T13:11:17.016Z,11.32
2019-04-14T13:12:17.002Z,11.44
2019-04-14T13:13:16.990Z,11.49
2019-04-14T13:14:16.967Z,11.75
2019-04-14T13:15:16.954Z,11.75
2019-04-14T13:16:16.931Z,12.02
2019-04-14T13:17:16.922Z,12.20
2019-04-14T13:18:16.901Z,12.38
2019-04-14T13:19:16.875Z,12.65
2019-04-14T13:20:16.866Z,12.70
2019-04-14T13:21:16.854Z,13.04
2019-04-14T13:22:16.831Z,13.15
2019-04-14T13:23:16.807Z,13.39
2019-04-14T13:24:16.793Z,13.54
2019-04-14T13:25:16.781Z,13.62
2019-04-14T13:26:16.760Z,13.64
2019-04-14T13:27:16.801Z,13.52
2019-04-14T13:28:16.722Z,13.59
2019-04-14T13:29:16.707Z,13.52
2019-04-14T13:30:16.694Z,13.42